Time;durP1;ratioP1;P1;durP2;ratioP2;P2;SDS_P1;SDS_P2;PMS_P1;PMS_P2;Temp;Humidity;BMP_temperature;BMP_pressure;BME280_temperature;BME280_humidity;BME280_pressure;Samples;Min_cycle;Max_cycle;Signal;HPM_P1;HPM_P2
2021/03/16 00:03:06;;;;;;;10.02;4.90;;;2.70;99.90;;;;;;21059777;28;19908;-77
2021/03/16 00:13:13;;;;;;;9.00;5.35;;;2.60;99.90;;;;;;21057083;28;20036;-77
2021/03/16 00:23:14;;;;;;;;;;;2.60;99.90;;;;;;21073216;28;20082;-77
2021/03/16 00:33:15;;;;;;;10.43;6.88;;;2.90;99.90;;;;;;21072381;28;20290;-77
2021/03/16 00:43:17;;;;;;;12.80;7.70;;;2.90;99.90;;;;;;21071976;28;20044;-77
2021/03/16 00:53:18;;;;;;;11.02;6.35;;;2.90;99.90;;;;;;21073266;28;20286;-77
2021/03/16 01:03:23;;;;;;;8.80;4.75;;;2.80;99.90;;;;;;21054665;28;20039;-77
2021/03/16 01:13:24;;;;;;;6.97;3.65;;;2.70;99.90;;;;;;21081716;28;20481;-76
2021/03/16 01:23:25;;;;;;;11.23;4.85;;;2.90;99.90;;;;;;21067439;28;20032;-77
2021/03/16 01:33:26;;;;;;;;;;;3.00;99.90;;;;;;21067324;28;20032;-76
2021/03/16 01:43:29;;;;;;;11.35;6.70;;;3.00;99.90;;;;;;21084276;28;19934;-77
2021/03/16 01:53:30;;;;;;;15.90;7.82;;;3.00;99.90;;;;;;21065452;28;20035;-77
2021/03/16 02:03:31;;;;;;;13.02;7.93;;;2.90;99.90;;;;;;21082907;28;20028;-77
2021/03/16 02:14:03;;;;;;;14.57;7.05;;;2.90;99.90;;;;;;21083212;28;20453;-77
2021/03/16 02:24:40;;;;;;;11.43;6.50;;;2.80;99.90;;;;;;21083671;28;20044;-77
2021/03/16 02:35:04;;;;;;;11.95;6.78;;;2.80;99.90;;;;;;21081784;28;20503;-77
2021/03/16 02:45:23;;;;;;;13.43;7.30;;;2.70;99.90;;;;;;21079573;28;20036;-77
2021/03/16 02:55:44;;;;;;;16.17;6.55;;;2.80;99.90;;;;;;21078424;28;20040;-77
2021/03/16 03:06:05;;;;;;;13.43;6.93;;;2.90;99.90;;;;;;21077981;28;20486;-77
2021/03/16 03:16:26;;;;;;;14.55;7.15;;;2.90;99.90;;;;;;21077481;28;20032;-77
2021/03/16 03:26:58;;;;;;;14.13;7.50;;;2.80;99.90;;;;;;20992115;28;20040;-77
2021/03/16 03:37:21;;;;;;;15.75;7.57;;;2.80;99.90;;;;;;20991878;28;20040;-77
2021/03/16 03:47:43;;;;;;;13.93;7.40;;;2.80;99.90;;;;;;20991168;28;20033;-77
2021/03/16 03:58:04;;;;;;;12.10;6.45;;;2.70;99.90;;;;;;20990938;28;20045;-77
2021/03/16 04:08:23;;;;;;;11.20;6.13;;;2.60;99.90;;;;;;20990452;28;20040;-77
2021/03/16 04:18:44;;;;;;;13.88;6.63;;;2.60;99.90;;;;;;20989847;28;20434;-77
2021/03/16 04:29:04;;;;;;;11.07;6.90;;;2.50;99.90;;;;;;20990527;28;20040;-77
2021/03/16 04:39:23;;;;;;;13.00;6.10;;;2.40;99.90;;;;;;20975289;28;20036;-77
2021/03/16 04:49:42;;;;;;;12.38;6.20;;;2.30;99.90;;;;;;21003346;28;20040;-77
2021/03/16 05:00:04;;;;;;;13.93;6.38;;;2.00;99.90;;;;;;20993171;28;20057;-77
2021/03/16 05:20:50;;;;;;;12.90;6.20;;;1.90;99.90;;;;;;20756606;28;19925;-75
2021/03/16 05:31:10;;;;;;;14.35;7.88;;;1.80;99.90;;;;;;20837162;28;20131;-75
2021/03/16 05:41:30;;;;;;;13.80;8.00;;;1.80;99.90;;;;;;20827699;28;20435;-76
2021/03/16 05:51:50;;;;;;;18.65;9.05;;;1.80;99.90;;;;;;20834627;28;20041;-76
2021/03/16 06:02:10;;;;;;;20.48;9.18;;;1.80;99.90;;;;;;20845238;28;20045;-76
2021/03/16 06:12:33;;;;;;;16.95;8.73;;;1.80;99.90;;;;;;20850778;28;20071;-76
2021/03/16 06:23:08;;;;;;;20.95;8.68;;;1.90;99.90;;;;;;20804664;28;20061;-76
2021/03/16 06:33:32;;;;;;;14.43;7.88;;;1.90;99.90;;;;;;20827823;28;20072;-76
2021/03/16 06:43:56;;;;;;;17.27;8.93;;;2.00;99.90;;;;;;20808714;28;20049;-76
2021/03/16 06:54:18;;;;;;;18.50;8.13;;;2.00;99.90;;;;;;20827788;28;20041;-76
2021/03/16 07:04:43;;;;;;;17.25;8.90;;;2.20;99.90;;;;;;20813735;28;20037;-75
2021/03/16 07:15:04;;;;;;;16.10;8.40;;;2.30;99.90;;;;;;20827798;28;20073;-76
2021/03/16 07:25:24;;;;;;;15.57;7.83;;;2.40;99.90;;;;;;20819306;28;20037;-75
2021/03/16 07:35:45;;;;;;;14.90;7.38;;;2.60;99.90;;;;;;20820863;28;20547;-76
2021/03/16 07:46:22;;;;;;;21.50;7.57;;;2.90;99.90;;;;;;20825909;28;20041;-76
2021/03/16 07:56:42;;;;;;;12.20;5.97;;;3.10;99.90;;;;;;20825351;28;20033;-76
2021/03/16 08:07:04;;;;;;;15.90;6.53;;;3.20;99.90;;;;;;20824615;28;20050;-76
2021/03/16 08:17:26;;;;;;;17.92;6.40;;;3.40;99.90;;;;;;20811102;28;20073;-76
2021/03/16 08:27:49;;;;;;;17.23;5.97;;;3.40;99.90;;;;;;20840975;28;20045;-76
2021/03/16 08:38:09;;;;;;;8.15;4.30;;;3.60;99.90;;;;;;20840265;28;20076;-76
2021/03/16 08:48:30;;;;;;;11.30;4.40;;;3.70;99.90;;;;;;20839381;28;20072;-76
2021/03/16 08:58:51;;;;;;;8.77;4.30;;;3.60;99.90;;;;;;20838994;28;20037;-76
2021/03/16 09:09:11;;;;;;;8.63;4.60;;;3.80;99.90;;;;;;20839184;28;20033;-76
2021/03/16 09:19:34;;;;;;;8.98;3.70;;;3.90;99.90;;;;;;20837123;28;20037;-76
2021/03/16 09:29:54;;;;;;;18.90;6.20;;;4.10;99.90;;;;;;20820832;28;20060;-76
2021/03/16 09:40:15;;;;;;;8.40;3.60;;;4.40;99.90;;;;;;20832949;28;20061;-77
2021/03/16 09:50:36;;;;;;;6.57;3.58;;;4.60;99.90;;;;;;20833497;28;20029;-76
2021/03/16 10:00:37;;;;;;;6.45;3.83;;;4.60;99.90;;;;;;20832571;28;20048;-76
2021/03/16 10:10:38;;;;;;;10.27;4.00;;;4.50;99.90;;;;;;20832714;28;20033;-77
2021/03/16 10:20:45;;;;;;;7.10;3.47;;;4.70;99.90;;;;;;20814508;28;20411;-76
2021/03/16 10:30:45;;;;;;;10.18;3.17;;;4.80;99.90;;;;;;20825172;28;20033;-76
2021/03/16 10:40:46;;;;;;;8.67;2.70;;;5.00;99.90;;;;;;20819004;28;20029;-77
2021/03/16 10:50:47;;;;;;;8.10;3.40;;;5.10;99.90;;;;;;20807392;28;20041;-76
2021/03/16 11:00:48;;;;;;;6.67;3.10;;;5.20;99.90;;;;;;20809596;28;20076;-77
2021/03/16 11:20:57;;;;;;;8.00;2.10;;;6.10;99.90;;;;;;20741449;28;20080;-77
2021/03/16 11:30:57;;;;;;;8.43;2.47;;;6.80;99.90;;;;;;20790802;28;20041;-77
2021/03/16 11:40:58;;;;;;;6.97;1.87;;;6.60;99.90;;;;;;20808660;28;20041;-77
2021/03/16 11:51:18;;;;;;;4.72;2.33;;;8.20;99.90;;;;;;20799274;28;20116;-77
2021/03/16 12:01:37;;;;;;;3.05;1.00;;;5.90;99.90;;;;;;20804433;28;20057;-77
2021/03/16 12:11:57;;;;;;;2.55;1.60;;;4.30;99.90;;;;;;20806253;28;20049;-78
2021/03/16 12:22:17;;;;;;;4.15;1.70;;;3.40;99.90;;;;;;20881596;28;20723;-77
2021/03/16 12:32:38;;;;;;;7.00;2.92;;;3.10;99.90;;;;;;20806426;28;20069;-77
2021/03/16 12:42:58;;;;;;;4.83;2.60;;;3.40;99.90;;;;;;20851247;28;20152;-77
2021/03/16 12:53:17;;;;;;;6.20;2.03;;;3.60;99.90;;;;;;20819716;28;20041;-78
2021/03/16 13:03:37;;;;;;;6.78;2.22;;;3.50;99.90;;;;;;20855967;28;20053;-78
2021/03/16 13:13:56;;;;;;;7.40;2.58;;;3.10;99.90;;;;;;20839619;28;20101;-80
2021/03/16 13:24:15;;;;;;;6.22;2.50;;;3.50;99.90;;;;;;20831564;28;20059;-79
2021/03/16 13:34:37;;;;;;;4.28;2.70;;;3.90;99.90;;;;;;20807453;28;20046;-78
2021/03/16 13:44:56;;;;;;;7.10;2.78;;;4.30;99.90;;;;;;20828108;28;20045;-79
2021/03/16 13:55:16;;;;;;;8.82;2.78;;;4.80;99.90;;;;;;20844039;28;20072;-79
2021/03/16 14:05:35;;;;;;;5.55;3.20;;;4.70;99.90;;;;;;20873800;28;20041;-79
2021/03/16 14:15:55;;;;;;;10.00;3.03;;;4.90;99.90;;;;;;20859222;28;20462;-80
2021/03/16 14:26:15;;;;;;;6.13;3.17;;;5.20;99.90;;;;;;20862147;28;20037;-79
2021/03/16 14:36:35;;;;;;;5.07;3.13;;;5.20;99.90;;;;;;20837682;28;20029;-79
2021/03/16 14:46:54;;;;;;;6.93;2.70;;;5.30;99.90;;;;;;20819706;28;20045;-79
2021/03/16 14:57:14;;;;;;;4.47;2.88;;;5.30;99.90;;;;;;20818867;28;20041;-78
2021/03/16 15:07:33;;;;;;;5.97;3.10;;;5.20;99.90;;;;;;20835615;28;20046;-79
2021/03/16 15:17:53;;;;;;;9.43;2.83;;;5.00;99.90;;;;;;20822664;28;20073;-78
2021/03/16 15:28:14;;;;;;;4.78;2.60;;;5.20;99.90;;;;;;20825909;28;20060;-79
2021/03/16 15:38:33;;;;;;;10.73;2.40;;;5.40;99.90;;;;;;20788823;28;20045;-79
2021/03/16 15:48:53;;;;;;;6.70;2.40;;;5.30;99.90;;;;;;20825581;28;20049;-79
2021/03/16 15:59:13;;;;;;;4.38;1.85;;;5.50;99.90;;;;;;20833444;28;20041;-78
2021/03/16 16:09:33;;;;;;;3.90;2.20;;;5.50;99.90;;;;;;20824221;28;20045;-79
2021/03/16 16:19:52;;;;;;;4.55;2.50;;;5.30;99.90;;;;;;20838999;28;20735;-77
2021/03/16 16:30:14;;;;;;;9.77;2.97;;;5.10;99.90;;;;;;20833618;28;20048;-77
2021/03/16 16:40:33;;;;;;;9.15;3.13;;;4.50;99.90;;;;;;20850330;28;20536;-78
2021/03/16 16:50:52;;;;;;;12.93;3.30;;;4.50;99.90;;;;;;20850426;28;20049;-79
2021/03/16 17:01:12;;;;;;;7.75;2.85;;;4.60;99.90;;;;;;20833752;28;20045;-77
2021/03/16 17:11:32;;;;;;;4.75;2.30;;;4.70;99.90;;;;;;20852678;22;20034;-77
2021/03/16 17:21:51;;;;;;;5.32;2.50;;;4.60;99.90;;;;;;20963541;28;20052;-76
2021/03/16 17:32:11;;;;;;;4.35;2.10;;;4.50;99.90;;;;;;20927549;28;20491;-76
2021/03/16 17:42:30;;;;;;;4.05;2.50;;;4.40;99.90;;;;;;20970676;28;20033;-77
2021/03/16 17:52:50;;;;;;;6.82;2.72;;;4.30;99.90;;;;;;20936755;28;20411;-76
2021/03/16 18:03:10;;;;;;;3.88;2.00;;;4.20;99.90;;;;;;20931084;28;20044;-76
2021/03/16 18:13:30;;;;;;;5.75;2.20;;;4.10;99.90;;;;;;20929006;28;20044;-78
2021/03/16 18:23:49;;;;;;;9.13;2.67;;;3.90;99.90;;;;;;20918485;28;20503;-77
2021/03/16 18:34:08;;;;;;;4.38;2.58;;;3.80;99.90;;;;;;20898586;28;20654;-76
2021/03/16 18:44:30;;;;;;;3.33;2.47;;;3.70;99.90;;;;;;20935673;28;20068;-76
2021/03/16 18:54:49;;;;;;;6.00;2.40;;;3.60;99.90;;;;;;20977018;28;20044;-76
2021/03/16 19:05:09;;;;;;;8.40;2.28;;;3.50;99.90;;;;;;21042902;28;20501;-77
2021/03/16 19:15:29;;;;;;;4.80;2.40;;;3.40;99.90;;;;;;20987715;28;20076;-76
2021/03/16 19:25:48;;;;;;;6.95;2.55;;;3.30;99.90;;;;;;20913838;28;20067;-76
2021/03/16 19:36:08;;;;;;;4.55;2.28;;;3.20;99.90;;;;;;20913306;28;20068;-76
2021/03/16 19:46:29;;;;;;;4.97;2.00;;;3.20;99.90;;;;;;20910908;28;20044;-76
2021/03/16 19:56:49;;;;;;;6.75;2.28;;;3.10;99.90;;;;;;20952909;28;20036;-76
2021/03/16 20:07:08;;;;;;;4.55;2.58;;;3.00;99.90;;;;;;20969964;28;20068;-77
2021/03/16 20:17:28;;;;;;;7.15;2.97;;;3.00;99.90;;;;;;20967547;28;20566;-77
2021/03/16 20:27:48;;;;;;;7.15;3.60;;;2.90;99.90;;;;;;20960157;28;20072;-77
2021/03/16 20:38:08;;;;;;;7.72;3.65;;;2.90;99.90;;;;;;20964306;28;20507;-76
2021/03/16 20:48:28;;;;;;;8.23;4.00;;;2.80;99.90;;;;;;20937597;28;20092;-76
2021/03/16 20:58:47;;;;;;;7.40;4.32;;;2.80;99.90;;;;;;20919140;28;20457;-77
2021/03/16 21:09:07;;;;;;;8.45;4.47;;;2.70;99.90;;;;;;20961309;28;20128;-76
2021/03/16 21:19:26;;;;;;;8.40;4.63;;;2.60;99.90;;;;;;20911497;28;20045;-76
2021/03/16 21:29:46;;;;;;;6.00;3.55;;;2.70;99.90;;;;;;20908988;28;20048;-76
2021/03/16 21:40:09;;;;;;;5.32;3.38;;;2.60;99.90;;;;;;20928770;28;20045;-76
2021/03/16 21:50:29;;;;;;;6.72;3.90;;;2.50;99.90;;;;;;20883161;28;20115;-77
2021/03/16 22:00:48;;;;;;;8.57;3.83;;;2.50;99.90;;;;;;20958232;28;20052;-77
2021/03/16 22:11:08;;;;;;;5.45;3.60;;;2.40;99.90;;;;;;20948003;28;20076;-76
2021/03/16 22:21:27;;;;;;;6.38;3.58;;;2.20;99.90;;;;;;20929313;28;20036;-76
2021/03/16 22:31:46;;;;;;;7.45;4.15;;;2.20;99.90;;;;;;20907288;28;20044;-76
2021/03/16 22:42:06;;;;;;;8.93;3.92;;;2.30;99.90;;;;;;20968388;28;20040;-76
2021/03/16 22:52:25;;;;;;;8.48;4.47;;;2.30;99.90;;;;;;20973755;28;20040;-76
2021/03/16 23:02:45;;;;;;;6.85;4.30;;;2.30;99.90;;;;;;20973263;28;20487;-77
2021/03/16 23:13:07;;;;;;;8.23;4.45;;;2.30;99.90;;;;;;21007476;22;20103;-80
2021/03/16 23:23:26;;;;;;;9.40;5.65;;;2.10;99.90;;;;;;21102152;28;20044;-80
2021/03/16 23:33:46;;;;;;;11.27;5.78;;;2.10;99.90;;;;;;21042893;28;20041;-81
2021/03/16 23:44:05;;;;;;;13.82;6.72;;;2.10;99.90;;;;;;21047656;28;20249;-80
2021/03/16 23:54:24;;;;;;;12.85;7.07;;;1.90;99.90;;;;;;21047398;28;20036;-80
